sensor_id;sensor_type;location;lat;lon;timestamp;P1;durP1;ratioP1;P2;durP2;ratioP2
78169;SDS011;67412;49.892;14.490;2023-02-14T00:02:02;22.00;;;7.55;;
78169;SDS011;67412;49.892;14.490;2023-02-14T00:04:28;20.98;;;7.57;;
78169;SDS011;67412;49.892;14.490;2023-02-14T00:06:54;19.73;;;7.40;;
78169;SDS011;67412;49.892;14.490;2023-02-14T00:09:19;23.40;;;8.30;;
78169;SDS011;67412;49.892;14.490;2023-02-14T00:11:45;22.77;;;8.15;;
78169;SDS011;67412;49.892;14.490;2023-02-14T00:14:10;26.42;;;8.52;;
78169;SDS011;67412;49.892;14.490;2023-02-14T00:16:55;19.30;;;7.15;;
78169;SDS011;67412;49.892;14.490;2023-02-14T00:19:22;29.00;;;9.20;;
78169;SDS011;67412;49.892;14.490;2023-02-14T00:21:47;24.60;;;8.93;;
78169;SDS011;67412;49.892;14.490;2023-02-14T00:24:18;27.50;;;10.05;;
78169;SDS011;67412;49.892;14.490;2023-02-14T00:26:48;22.42;;;8.82;;
78169;SDS011;67412;49.892;14.490;2023-02-14T00:29:15;29.77;;;11.15;;
78169;SDS011;67412;49.892;14.490;2023-02-14T00:31:42;24.23;;;9.32;;
78169;SDS011;67412;49.892;14.490;2023-02-14T00:34:08;28.23;;;9.93;;
78169;SDS011;67412;49.892;14.490;2023-02-14T00:36:35;27.80;;;10.15;;
78169;SDS011;67412;49.892;14.490;2023-02-14T00:39:01;26.15;;;9.63;;
78169;SDS011;67412;49.892;14.490;2023-02-14T00:41:31;24.50;;;7.80;;
78169;SDS011;67412;49.892;14.490;2023-02-14T00:43:57;24.63;;;9.52;;
78169;SDS011;67412;49.892;14.490;2023-02-14T00:46:23;27.10;;;8.68;;
78169;SDS011;67412;49.892;14.490;2023-02-14T00:48:49;22.88;;;9.07;;
78169;SDS011;67412;49.892;14.490;2023-02-14T00:51:15;20.85;;;8.57;;
78169;SDS011;67412;49.892;14.490;2023-02-14T00:56:08;24.30;;;8.95;;
78169;SDS011;67412;49.892;14.490;2023-02-14T00:58:33;23.83;;;8.75;;
78169;SDS011;67412;49.892;14.490;2023-02-14T01:00:58;26.08;;;8.88;;
78169;SDS011;67412;49.892;14.490;2023-02-14T01:03:24;23.80;;;9.98;;
78169;SDS011;67412;49.892;14.490;2023-02-14T01:05:50;26.83;;;9.15;;
78169;SDS011;67412;49.892;14.490;2023-02-14T01:08:16;23.48;;;9.10;;
78169;SDS011;67412;49.892;14.490;2023-02-14T01:10:42;23.40;;;9.25;;
78169;SDS011;67412;49.892;14.490;2023-02-14T01:13:09;25.75;;;10.20;;
78169;SDS011;67412;49.892;14.490;2023-02-14T01:15:42;24.02;;;9.05;;
78169;SDS011;67412;49.892;14.490;2023-02-14T01:18:09;24.10;;;8.85;;
78169;SDS011;67412;49.892;14.490;2023-02-14T01:20:35;23.85;;;8.35;;
78169;SDS011;67412;49.892;14.490;2023-02-14T01:23:00;25.65;;;9.30;;
78169;SDS011;67412;49.892;14.490;2023-02-14T01:25:26;25.88;;;9.60;;
78169;SDS011;67412;49.892;14.490;2023-02-14T01:27:52;21.73;;;8.77;;
78169;SDS011;67412;49.892;14.490;2023-02-14T01:30:18;22.55;;;8.80;;
78169;SDS011;67412;49.892;14.490;2023-02-14T01:32:43;24.10;;;8.02;;
78169;SDS011;67412;49.892;14.490;2023-02-14T01:35:09;20.77;;;8.88;;
78169;SDS011;67412;49.892;14.490;2023-02-14T01:37:35;23.33;;;8.98;;
78169;SDS011;67412;49.892;14.490;2023-02-14T01:40:01;19.75;;;8.25;;
78169;SDS011;67412;49.892;14.490;2023-02-14T01:42:27;23.35;;;8.95;;
78169;SDS011;67412;49.892;14.490;2023-02-14T01:44:54;23.17;;;9.73;;
78169;SDS011;67412;49.892;14.490;2023-02-14T01:47:22;21.75;;;8.38;;
78169;SDS011;67412;49.892;14.490;2023-02-14T01:49:50;24.23;;;9.25;;
78169;SDS011;67412;49.892;14.490;2023-02-14T01:52:22;20.88;;;8.30;;
78169;SDS011;67412;49.892;14.490;2023-02-14T01:54:53;22.30;;;8.73;;
78169;SDS011;67412;49.892;14.490;2023-02-14T01:57:23;18.80;;;8.68;;
78169;SDS011;67412;49.892;14.490;2023-02-14T01:59:57;20.33;;;8.63;;
78169;SDS011;67412;49.892;14.490;2023-02-14T02:02:45;24.30;;;9.05;;
78169;SDS011;67412;49.892;14.490;2023-02-14T02:05:11;24.02;;;9.20;;
78169;SDS011;67412;49.892;14.490;2023-02-14T02:07:38;21.13;;;8.65;;
78169;SDS011;67412;49.892;14.490;2023-02-14T02:10:04;23.35;;;9.40;;
78169;SDS011;67412;49.892;14.490;2023-02-14T02:12:31;22.98;;;9.20;;
78169;SDS011;67412;49.892;14.490;2023-02-14T02:14:59;26.08;;;9.25;;
78169;SDS011;67412;49.892;14.490;2023-02-14T02:36:16;22.65;;;9.07;;
78169;SDS011;67412;49.892;14.490;2023-02-14T02:47:33;21.75;;;9.55;;
78169;SDS011;67412;49.892;14.490;2023-02-14T02:58:31;24.98;;;10.00;;
78169;SDS011;67412;49.892;14.490;2023-02-14T03:01:01;23.60;;;8.05;;
78169;SDS011;67412;49.892;14.490;2023-02-14T03:03:31;22.58;;;9.15;;
78169;SDS011;67412;49.892;14.490;2023-02-14T03:06:16;24.48;;;9.57;;
78169;SDS011;67412;49.892;14.490;2023-02-14T03:08:41;22.33;;;8.80;;
78169;SDS011;67412;49.892;14.490;2023-02-14T03:11:06;23.10;;;8.93;;
78169;SDS011;67412;49.892;14.490;2023-02-14T03:16:28;30.60;;;10.98;;
78169;SDS011;67412;49.892;14.490;2023-02-14T03:21:33;29.00;;;10.85;;
78169;SDS011;67412;49.892;14.490;2023-02-14T03:26:48;32.30;;;11.30;;
78169;SDS011;67412;49.892;14.490;2023-02-14T03:30:06;36.53;;;11.90;;
78169;SDS011;67412;49.892;14.490;2023-02-14T03:37:25;22.70;;;9.48;;
78169;SDS011;67412;49.892;14.490;2023-02-14T03:43:04;47.28;;;15.50;;
78169;SDS011;67412;49.892;14.490;2023-02-14T03:45:36;50.85;;;14.82;;
78169;SDS011;67412;49.892;14.490;2023-02-14T03:48:07;54.72;;;15.82;;
78169;SDS011;67412;49.892;14.490;2023-02-14T03:50:36;45.17;;;14.82;;
78169;SDS011;67412;49.892;14.490;2023-02-14T03:53:04;43.90;;;13.55;;
78169;SDS011;67412;49.892;14.490;2023-02-14T03:55:39;42.53;;;13.88;;
78169;SDS011;67412;49.892;14.490;2023-02-14T03:58:26;37.30;;;12.48;;
78169;SDS011;67412;49.892;14.490;2023-02-14T04:00:59;43.08;;;13.00;;
78169;SDS011;67412;49.892;14.490;2023-02-14T04:03:36;48.70;;;14.00;;
78169;SDS011;67412;49.892;14.490;2023-02-14T04:06:04;42.80;;;14.38;;
78169;SDS011;67412;49.892;14.490;2023-02-14T04:08:30;31.23;;;12.27;;
78169;SDS011;67412;49.892;14.490;2023-02-14T04:10:56;31.00;;;10.75;;
78169;SDS011;67412;49.892;14.490;2023-02-14T04:13:24;28.63;;;10.75;;
78169;SDS011;67412;49.892;14.490;2023-02-14T04:15:50;33.40;;;12.90;;
78169;SDS011;67412;49.892;14.490;2023-02-14T04:18:15;34.88;;;11.55;;
78169;SDS011;67412;49.892;14.490;2023-02-14T04:20:59;42.30;;;13.48;;
78169;SDS011;67412;49.892;14.490;2023-02-14T04:23:24;41.78;;;12.63;;
78169;SDS011;67412;49.892;14.490;2023-02-14T04:25:50;31.38;;;12.40;;
78169;SDS011;67412;49.892;14.490;2023-02-14T04:28:15;40.15;;;12.80;;
78169;SDS011;67412;49.892;14.490;2023-02-14T04:30:41;31.55;;;12.25;;
78169;SDS011;67412;49.892;14.490;2023-02-14T04:33:06;38.92;;;12.88;;
78169;SDS011;67412;49.892;14.490;2023-02-14T04:35:32;33.42;;;10.90;;
78169;SDS011;67412;49.892;14.490;2023-02-14T04:37:59;27.65;;;11.35;;
78169;SDS011;67412;49.892;14.490;2023-02-14T04:40:28;31.55;;;11.70;;
78169;SDS011;67412;49.892;14.490;2023-02-14T04:42:54;29.23;;;10.85;;
78169;SDS011;67412;49.892;14.490;2023-02-14T04:45:19;31.58;;;10.70;;
78169;SDS011;67412;49.892;14.490;2023-02-14T04:47:45;27.88;;;10.13;;
78169;SDS011;67412;49.892;14.490;2023-02-14T04:50:10;28.00;;;11.02;;
78169;SDS011;67412;49.892;14.490;2023-02-14T04:52:36;38.10;;;11.82;;
78169;SDS011;67412;49.892;14.490;2023-02-14T04:55:02;28.88;;;10.27;;
78169;SDS011;67412;49.892;14.490;2023-02-14T04:57:29;25.67;;;9.55;;
78169;SDS011;67412;49.892;14.490;2023-02-14T04:59:54;22.02;;;9.10;;
78169;SDS011;67412;49.892;14.490;2023-02-14T05:02:20;25.48;;;9.07;;
78169;SDS011;67412;49.892;14.490;2023-02-14T05:04:45;23.75;;;8.38;;
78169;SDS011;67412;49.892;14.490;2023-02-14T05:07:11;21.85;;;9.40;;
78169;SDS011;67412;49.892;14.490;2023-02-14T05:09:36;25.08;;;9.25;;
78169;SDS011;67412;49.892;14.490;2023-02-14T05:12:02;27.95;;;10.77;;
78169;SDS011;67412;49.892;14.490;2023-02-14T05:14:27;26.75;;;9.93;;
78169;SDS011;67412;49.892;14.490;2023-02-14T05:16:52;22.05;;;8.65;;
78169;SDS011;67412;49.892;14.490;2023-02-14T05:19:18;23.40;;;9.80;;
78169;SDS011;67412;49.892;14.490;2023-02-14T05:21:43;23.00;;;9.20;;
78169;SDS011;67412;49.892;14.490;2023-02-14T05:24:09;34.28;;;11.93;;
78169;SDS011;67412;49.892;14.490;2023-02-14T05:26:34;30.85;;;11.68;;
78169;SDS011;67412;49.892;14.490;2023-02-14T05:28:59;32.17;;;11.98;;
78169;SDS011;67412;49.892;14.490;2023-02-14T05:31:25;27.98;;;9.68;;
78169;SDS011;67412;49.892;14.490;2023-02-14T05:33:50;23.48;;;8.20;;
78169;SDS011;67412;49.892;14.490;2023-02-14T05:36:16;21.85;;;8.25;;
78169;SDS011;67412;49.892;14.490;2023-02-14T05:38:41;20.27;;;8.02;;
78169;SDS011;67412;49.892;14.490;2023-02-14T05:41:07;21.88;;;8.30;;
78169;SDS011;67412;49.892;14.490;2023-02-14T05:43:32;24.10;;;8.48;;
78169;SDS011;67412;49.892;14.490;2023-02-14T05:45:57;31.15;;;11.43;;
78169;SDS011;67412;49.892;14.490;2023-02-14T05:48:23;49.30;;;16.10;;
78169;SDS011;67412;49.892;14.490;2023-02-14T05:50:49;41.63;;;12.15;;
78169;SDS011;67412;49.892;14.490;2023-02-14T05:53:14;36.53;;;12.93;;
78169;SDS011;67412;49.892;14.490;2023-02-14T05:55:40;41.40;;;13.80;;
78169;SDS011;67412;49.892;14.490;2023-02-14T05:58:05;34.90;;;13.07;;
78169;SDS011;67412;49.892;14.490;2023-02-14T06:00:31;33.85;;;12.70;;
78169;SDS011;67412;49.892;14.490;2023-02-14T06:02:56;37.97;;;11.52;;
78169;SDS011;67412;49.892;14.490;2023-02-14T06:05:22;32.25;;;11.38;;
78169;SDS011;67412;49.892;14.490;2023-02-14T06:07:47;33.17;;;10.38;;
78169;SDS011;67412;49.892;14.490;2023-02-14T06:10:18;34.10;;;11.23;;
78169;SDS011;67412;49.892;14.490;2023-02-14T06:12:47;32.00;;;11.27;;
78169;SDS011;67412;49.892;14.490;2023-02-14T06:15:13;32.13;;;12.00;;
78169;SDS011;67412;49.892;14.490;2023-02-14T06:17:39;34.40;;;12.23;;
78169;SDS011;67412;49.892;14.490;2023-02-14T06:20:05;25.50;;;9.73;;
78169;SDS011;67412;49.892;14.490;2023-02-14T06:22:31;25.40;;;9.13;;
78169;SDS011;67412;49.892;14.490;2023-02-14T06:24:56;24.02;;;10.50;;
78169;SDS011;67412;49.892;14.490;2023-02-14T06:27:21;21.08;;;8.80;;
78169;SDS011;67412;49.892;14.490;2023-02-14T06:29:47;22.92;;;9.10;;
78169;SDS011;67412;49.892;14.490;2023-02-14T06:32:12;23.65;;;9.93;;
78169;SDS011;67412;49.892;14.490;2023-02-14T06:34:37;26.02;;;9.05;;
78169;SDS011;67412;49.892;14.490;2023-02-14T06:37:04;18.95;;;7.85;;
78169;SDS011;67412;49.892;14.490;2023-02-14T06:39:30;22.92;;;8.68;;
78169;SDS011;67412;49.892;14.490;2023-02-14T06:41:56;20.55;;;8.27;;
78169;SDS011;67412;49.892;14.490;2023-02-14T06:44:21;27.02;;;9.27;;
78169;SDS011;67412;49.892;14.490;2023-02-14T06:46:46;24.92;;;9.57;;
78169;SDS011;67412;49.892;14.490;2023-02-14T06:49:12;22.90;;;8.40;;
78169;SDS011;67412;49.892;14.490;2023-02-14T06:51:37;23.38;;;8.15;;
78169;SDS011;67412;49.892;14.490;2023-02-14T06:54:02;19.25;;;8.00;;
78169;SDS011;67412;49.892;14.490;2023-02-14T06:56:28;22.13;;;9.90;;
78169;SDS011;67412;49.892;14.490;2023-02-14T06:58:53;23.33;;;8.52;;
78169;SDS011;67412;49.892;14.490;2023-02-14T07:01:19;26.95;;;10.50;;
78169;SDS011;67412;49.892;14.490;2023-02-14T07:03:44;23.65;;;8.65;;
78169;SDS011;67412;49.892;14.490;2023-02-14T07:06:09;22.08;;;8.35;;
78169;SDS011;67412;49.892;14.490;2023-02-14T07:08:35;22.38;;;9.00;;
78169;SDS011;67412;49.892;14.490;2023-02-14T07:11:00;24.83;;;9.82;;
78169;SDS011;67412;49.892;14.490;2023-02-14T07:13:26;23.67;;;8.95;;
78169;SDS011;67412;49.892;14.490;2023-02-14T07:15:52;23.38;;;9.25;;
78169;SDS011;67412;49.892;14.490;2023-02-14T07:18:18;23.80;;;9.40;;
78169;SDS011;67412;49.892;14.490;2023-02-14T07:20:43;24.42;;;10.35;;
78169;SDS011;67412;49.892;14.490;2023-02-14T07:23:09;27.20;;;11.02;;
78169;SDS011;67412;49.892;14.490;2023-02-14T07:25:34;27.38;;;10.80;;
78169;SDS011;67412;49.892;14.490;2023-02-14T07:28:00;25.85;;;10.82;;
78169;SDS011;67412;49.892;14.490;2023-02-14T07:30:26;28.77;;;11.05;;
78169;SDS011;67412;49.892;14.490;2023-02-14T07:32:52;26.08;;;11.18;;
78169;SDS011;67412;49.892;14.490;2023-02-14T07:35:17;25.13;;;9.98;;
78169;SDS011;67412;49.892;14.490;2023-02-14T07:37:43;21.95;;;8.48;;
78169;SDS011;67412;49.892;14.490;2023-02-14T07:40:08;24.50;;;9.35;;
78169;SDS011;67412;49.892;14.490;2023-02-14T07:42:34;20.95;;;8.95;;
78169;SDS011;67412;49.892;14.490;2023-02-14T07:44:59;24.33;;;9.40;;
78169;SDS011;67412;49.892;14.490;2023-02-14T07:47:25;24.75;;;10.13;;
78169;SDS011;67412;49.892;14.490;2023-02-14T07:49:50;27.98;;;10.63;;
78169;SDS011;67412;49.892;14.490;2023-02-14T07:52:16;24.33;;;9.90;;
78169;SDS011;67412;49.892;14.490;2023-02-14T07:54:41;27.13;;;10.77;;
78169;SDS011;67412;49.892;14.490;2023-02-14T07:57:07;23.95;;;9.18;;
78169;SDS011;67412;49.892;14.490;2023-02-14T07:59:32;24.10;;;9.95;;
78169;SDS011;67412;49.892;14.490;2023-02-14T08:01:58;30.67;;;11.65;;
78169;SDS011;67412;49.892;14.490;2023-02-14T08:04:23;25.88;;;10.18;;
78169;SDS011;67412;49.892;14.490;2023-02-14T08:06:50;26.95;;;11.10;;
78169;SDS011;67412;49.892;14.490;2023-02-14T08:09:15;26.83;;;10.48;;
78169;SDS011;67412;49.892;14.490;2023-02-14T08:11:49;27.27;;;10.63;;
78169;SDS011;67412;49.892;14.490;2023-02-14T08:14:33;27.05;;;10.93;;
78169;SDS011;67412;49.892;14.490;2023-02-14T08:16:59;27.80;;;10.75;;
78169;SDS011;67412;49.892;14.490;2023-02-14T08:19:25;22.05;;;10.30;;
78169;SDS011;67412;49.892;14.490;2023-02-14T08:21:51;24.45;;;10.07;;
78169;SDS011;67412;49.892;14.490;2023-02-14T08:24:16;23.27;;;10.65;;
78169;SDS011;67412;49.892;14.490;2023-02-14T08:26:41;29.83;;;11.43;;
78169;SDS011;67412;49.892;14.490;2023-02-14T08:29:07;25.70;;;10.30;;
78169;SDS011;67412;49.892;14.490;2023-02-14T08:31:32;27.95;;;10.85;;
78169;SDS011;67412;49.892;14.490;2023-02-14T08:33:57;25.02;;;9.95;;
78169;SDS011;67412;49.892;14.490;2023-02-14T08:36:23;23.98;;;10.30;;
78169;SDS011;67412;49.892;14.490;2023-02-14T08:38:48;26.38;;;10.27;;
78169;SDS011;67412;49.892;14.490;2023-02-14T08:41:14;45.30;;;14.13;;
78169;SDS011;67412;49.892;14.490;2023-02-14T08:43:41;30.77;;;11.82;;
78169;SDS011;67412;49.892;14.490;2023-02-14T08:46:07;25.83;;;10.80;;
78169;SDS011;67412;49.892;14.490;2023-02-14T08:48:33;27.92;;;11.35;;
78169;SDS011;67412;49.892;14.490;2023-02-14T08:51:03;29.50;;;10.40;;
78169;SDS011;67412;49.892;14.490;2023-02-14T08:56:01;26.05;;;10.15;;
78169;SDS011;67412;49.892;14.490;2023-02-14T08:58:27;24.65;;;10.18;;
78169;SDS011;67412;49.892;14.490;2023-02-14T09:00:53;24.85;;;10.63;;
78169;SDS011;67412;49.892;14.490;2023-02-14T09:03:19;25.38;;;10.27;;
78169;SDS011;67412;49.892;14.490;2023-02-14T09:05:45;27.88;;;10.45;;
78169;SDS011;67412;49.892;14.490;2023-02-14T09:08:10;25.10;;;10.40;;
78169;SDS011;67412;49.892;14.490;2023-02-14T09:10:35;31.55;;;14.02;;
78169;SDS011;67412;49.892;14.490;2023-02-14T09:13:01;25.20;;;11.25;;
78169;SDS011;67412;49.892;14.490;2023-02-14T09:15:26;24.45;;;10.00;;
78169;SDS011;67412;49.892;14.490;2023-02-14T09:17:52;23.92;;;10.40;;
78169;SDS011;67412;49.892;14.490;2023-02-14T09:20:17;26.02;;;9.20;;
78169;SDS011;67412;49.892;14.490;2023-02-14T09:22:43;21.65;;;8.60;;
78169;SDS011;67412;49.892;14.490;2023-02-14T09:25:08;19.73;;;8.38;;
78169;SDS011;67412;49.892;14.490;2023-02-14T09:27:34;27.55;;;10.32;;
78169;SDS011;67412;49.892;14.490;2023-02-14T09:29:59;24.25;;;10.02;;
78169;SDS011;67412;49.892;14.490;2023-02-14T09:32:26;28.67;;;9.35;;
78169;SDS011;67412;49.892;14.490;2023-02-14T09:34:53;24.27;;;10.98;;
78169;SDS011;67412;49.892;14.490;2023-02-14T09:37:36;28.50;;;12.57;;
78169;SDS011;67412;49.892;14.490;2023-02-14T09:40:21;27.08;;;10.93;;
78169;SDS011;67412;49.892;14.490;2023-02-14T09:45:19;21.88;;;9.75;;
78169;SDS011;67412;49.892;14.490;2023-02-14T09:47:50;16.70;;;6.47;;
78169;SDS011;67412;49.892;14.490;2023-02-14T09:53:27;15.38;;;5.70;;
78169;SDS011;67412;49.892;14.490;2023-02-14T09:56:12;15.07;;;5.97;;
78169;SDS011;67412;49.892;14.490;2023-02-14T09:58:46;14.02;;;5.07;;
78169;SDS011;67412;49.892;14.490;2023-02-14T10:04:12;14.50;;;5.70;;
78169;SDS011;67412;49.892;14.490;2023-02-14T10:09:24;14.02;;;4.95;;
78169;SDS011;67412;49.892;14.490;2023-02-14T10:12:20;14.13;;;5.85;;
78169;SDS011;67412;49.892;14.490;2023-02-14T10:14:51;14.60;;;5.70;;
78169;SDS011;67412;49.892;14.490;2023-02-14T10:17:26;13.98;;;6.15;;
78169;SDS011;67412;49.892;14.490;2023-02-14T10:20:03;15.50;;;5.70;;
78169;SDS011;67412;49.892;14.490;2023-02-14T10:22:42;15.57;;;6.40;;
78169;SDS011;67412;49.892;14.490;2023-02-14T10:25:25;14.50;;;5.68;;
78169;SDS011;67412;49.892;14.490;2023-02-14T10:28:11;15.23;;;6.95;;
78169;SDS011;67412;49.892;14.490;2023-02-14T10:30:39;15.05;;;6.53;;
78169;SDS011;67412;49.892;14.490;2023-02-14T10:35:46;14.90;;;6.25;;
78169;SDS011;67412;49.892;14.490;2023-02-14T10:43:56;13.80;;;5.80;;
78169;SDS011;67412;49.892;14.490;2023-02-14T10:55:19;17.20;;;7.65;;
78169;SDS011;67412;49.892;14.490;2023-02-14T10:57:52;16.77;;;6.38;;
78169;SDS011;67412;49.892;14.490;2023-02-14T11:00:21;15.85;;;6.25;;
78169;SDS011;67412;49.892;14.490;2023-02-14T11:02:51;18.98;;;7.65;;
78169;SDS011;67412;49.892;14.490;2023-02-14T11:05:27;13.68;;;5.82;;
78169;SDS011;67412;49.892;14.490;2023-02-14T11:07:54;15.18;;;6.18;;
78169;SDS011;67412;49.892;14.490;2023-02-14T11:10:23;13.57;;;5.95;;
78169;SDS011;67412;49.892;14.490;2023-02-14T11:12:51;23.38;;;10.05;;
78169;SDS011;67412;49.892;14.490;2023-02-14T11:15:24;19.48;;;8.90;;
78169;SDS011;67412;49.892;14.490;2023-02-14T11:18:37;17.65;;;8.35;;
78169;SDS011;67412;49.892;14.490;2023-02-14T11:20:59;17.60;;;7.53;;
78169;SDS011;67412;49.892;14.490;2023-02-14T11:23:27;14.30;;;6.30;;
78169;SDS011;67412;49.892;14.490;2023-02-14T11:25:58;16.77;;;7.20;;
78169;SDS011;67412;49.892;14.490;2023-02-14T11:28:24;18.58;;;7.55;;
78169;SDS011;67412;49.892;14.490;2023-02-14T11:30:50;22.85;;;7.38;;
78169;SDS011;67412;49.892;14.490;2023-02-14T11:35:54;17.65;;;7.78;;
78169;SDS011;67412;49.892;14.490;2023-02-14T11:38:41;15.90;;;6.25;;
78169;SDS011;67412;49.892;14.490;2023-02-14T11:41:08;16.75;;;6.57;;
78169;SDS011;67412;49.892;14.490;2023-02-14T11:48:38;17.98;;;7.03;;
78169;SDS011;67412;49.892;14.490;2023-02-14T11:51:24;17.55;;;6.97;;
78169;SDS011;67412;49.892;14.490;2023-02-14T11:53:56;17.58;;;7.85;;
78169;SDS011;67412;49.892;14.490;2023-02-14T11:56:48;17.90;;;7.68;;
78169;SDS011;67412;49.892;14.490;2023-02-14T11:59:35;17.98;;;6.97;;
78169;SDS011;67412;49.892;14.490;2023-02-14T12:02:47;12.70;;;6.05;;
78169;SDS011;67412;49.892;14.490;2023-02-14T12:05:03;18.10;;;6.85;;
78169;SDS011;67412;49.892;14.490;2023-02-14T12:07:39;15.50;;;6.93;;
78169;SDS011;67412;49.892;14.490;2023-02-14T12:24:32;17.13;;;8.15;;
78169;SDS011;67412;49.892;14.490;2023-02-14T12:26:45;21.08;;;8.68;;
78169;SDS011;67412;49.892;14.490;2023-02-14T12:31:55;23.00;;;9.85;;
78169;SDS011;67412;49.892;14.490;2023-02-14T12:34:25;18.83;;;8.38;;
78169;SDS011;67412;49.892;14.490;2023-02-14T12:37:12;19.67;;;8.63;;
78169;SDS011;67412;49.892;14.490;2023-02-14T12:42:53;17.92;;;8.60;;
78169;SDS011;67412;49.892;14.490;2023-02-14T12:59:15;22.35;;;9.02;;
78169;SDS011;67412;49.892;14.490;2023-02-14T13:09:44;22.45;;;10.27;;
78169;SDS011;67412;49.892;14.490;2023-02-14T13:22:49;19.00;;;9.38;;
78169;SDS011;67412;49.892;14.490;2023-02-14T13:25:26;20.75;;;9.70;;
78169;SDS011;67412;49.892;14.490;2023-02-14T13:28:01;23.02;;;9.68;;
78169;SDS011;67412;49.892;14.490;2023-02-14T13:30:30;19.63;;;9.57;;
78169;SDS011;67412;49.892;14.490;2023-02-14T13:33:02;19.63;;;8.93;;
78169;SDS011;67412;49.892;14.490;2023-02-14T13:36:07;21.40;;;9.95;;
78169;SDS011;67412;49.892;14.490;2023-02-14T13:38:39;22.30;;;9.63;;
78169;SDS011;67412;49.892;14.490;2023-02-14T13:41:08;20.13;;;9.65;;
78169;SDS011;67412;49.892;14.490;2023-02-14T13:46:09;20.27;;;8.93;;
78169;SDS011;67412;49.892;14.490;2023-02-14T13:48:34;20.33;;;9.35;;
78169;SDS011;67412;49.892;14.490;2023-02-14T13:51:01;22.75;;;10.00;;
78169;SDS011;67412;49.892;14.490;2023-02-14T14:25:30;20.30;;;9.25;;
78169;SDS011;67412;49.892;14.490;2023-02-14T14:27:55;22.58;;;9.90;;
78169;SDS011;67412;49.892;14.490;2023-02-14T14:30:27;21.35;;;9.55;;
78169;SDS011;67412;49.892;14.490;2023-02-14T14:35:38;24.17;;;9.75;;
78169;SDS011;67412;49.892;14.490;2023-02-14T14:38:04;21.70;;;8.63;;
78169;SDS011;67412;49.892;14.490;2023-02-14T14:40:30;24.55;;;10.20;;
78169;SDS011;67412;49.892;14.490;2023-02-14T14:43:14;22.65;;;9.63;;
78169;SDS011;67412;49.892;14.490;2023-02-14T14:45:46;21.50;;;10.18;;
78169;SDS011;67412;49.892;14.490;2023-02-14T14:48:17;22.25;;;9.43;;
78169;SDS011;67412;49.892;14.490;2023-02-14T14:50:49;20.30;;;8.85;;
78169;SDS011;67412;49.892;14.490;2023-02-14T14:53:28;21.15;;;8.88;;
78169;SDS011;67412;49.892;14.490;2023-02-14T14:55:55;22.60;;;9.43;;
78169;SDS011;67412;49.892;14.490;2023-02-14T15:01:03;22.98;;;9.57;;
78169;SDS011;67412;49.892;14.490;2023-02-14T15:03:31;19.23;;;8.60;;
78169;SDS011;67412;49.892;14.490;2023-02-14T15:06:07;19.20;;;8.45;;
78169;SDS011;67412;49.892;14.490;2023-02-14T15:08:41;20.83;;;8.32;;
78169;SDS011;67412;49.892;14.490;2023-02-14T15:11:09;20.80;;;7.90;;
78169;SDS011;67412;49.892;14.490;2023-02-14T15:14:29;16.98;;;6.50;;
78169;SDS011;67412;49.892;14.490;2023-02-14T15:17:01;17.90;;;7.47;;
78169;SDS011;67412;49.892;14.490;2023-02-14T15:25:22;24.70;;;10.95;;
78169;SDS011;67412;49.892;14.490;2023-02-14T15:27:51;21.92;;;9.98;;
78169;SDS011;67412;49.892;14.490;2023-02-14T15:32:53;19.65;;;8.85;;
78169;SDS011;67412;49.892;14.490;2023-02-14T15:35:22;17.90;;;7.55;;
78169;SDS011;67412;49.892;14.490;2023-02-14T15:37:51;20.95;;;7.82;;
78169;SDS011;67412;49.892;14.490;2023-02-14T15:40:22;18.35;;;8.05;;
78169;SDS011;67412;49.892;14.490;2023-02-14T15:42:49;16.17;;;7.25;;
78169;SDS011;67412;49.892;14.490;2023-02-14T15:47:53;19.80;;;8.15;;
78169;SDS011;67412;49.892;14.490;2023-02-14T15:50:22;17.98;;;7.72;;
78169;SDS011;67412;49.892;14.490;2023-02-14T15:52:52;16.95;;;7.63;;
78169;SDS011;67412;49.892;14.490;2023-02-14T15:55:22;21.10;;;9.75;;
78169;SDS011;67412;49.892;14.490;2023-02-14T15:57:58;19.40;;;8.88;;
78169;SDS011;67412;49.892;14.490;2023-02-14T16:00:30;19.02;;;8.15;;
78169;SDS011;67412;49.892;14.490;2023-02-14T16:02:58;15.80;;;7.07;;
78169;SDS011;67412;49.892;14.490;2023-02-14T16:05:27;18.20;;;8.60;;
78169;SDS011;67412;49.892;14.490;2023-02-14T16:07:54;18.58;;;7.85;;
78169;SDS011;67412;49.892;14.490;2023-02-14T16:10:26;19.20;;;8.55;;
78169;SDS011;67412;49.892;14.490;2023-02-14T16:13:36;22.48;;;9.40;;
78169;SDS011;67412;49.892;14.490;2023-02-14T16:18:43;26.17;;;11.48;;
78169;SDS011;67412;49.892;14.490;2023-02-14T16:23:36;22.42;;;9.55;;
78169;SDS011;67412;49.892;14.490;2023-02-14T16:26:02;23.13;;;9.68;;
78169;SDS011;67412;49.892;14.490;2023-02-14T16:28:30;24.15;;;10.65;;
78169;SDS011;67412;49.892;14.490;2023-02-14T16:30:57;27.73;;;13.45;;
78169;SDS011;67412;49.892;14.490;2023-02-14T16:33:28;28.05;;;13.55;;
78169;SDS011;67412;49.892;14.490;2023-02-14T16:36:07;26.15;;;12.68;;
78169;SDS011;67412;49.892;14.490;2023-02-14T16:38:42;21.02;;;9.30;;
78169;SDS011;67412;49.892;14.490;2023-02-14T16:43:40;34.35;;;15.10;;
78169;SDS011;67412;49.892;14.490;2023-02-14T16:46:08;38.10;;;17.83;;
78169;SDS011;67412;49.892;14.490;2023-02-14T16:48:36;37.30;;;17.42;;
78169;SDS011;67412;49.892;14.490;2023-02-14T16:51:01;22.30;;;11.57;;
78169;SDS011;67412;49.892;14.490;2023-02-14T16:53:26;21.98;;;10.25;;
78169;SDS011;67412;49.892;14.490;2023-02-14T16:55:53;22.90;;;9.70;;
78169;SDS011;67412;49.892;14.490;2023-02-14T16:58:20;20.75;;;9.45;;
78169;SDS011;67412;49.892;14.490;2023-02-14T17:00:49;20.42;;;9.50;;
78169;SDS011;67412;49.892;14.490;2023-02-14T17:03:14;23.60;;;10.20;;
78169;SDS011;67412;49.892;14.490;2023-02-14T17:05:39;22.33;;;9.75;;
78169;SDS011;67412;49.892;14.490;2023-02-14T17:08:06;25.25;;;10.10;;
78169;SDS011;67412;49.892;14.490;2023-02-14T17:10:35;21.83;;;9.60;;
78169;SDS011;67412;49.892;14.490;2023-02-14T17:13:01;23.65;;;10.20;;
78169;SDS011;67412;49.892;14.490;2023-02-14T17:15:29;21.70;;;9.20;;
78169;SDS011;67412;49.892;14.490;2023-02-14T17:17:56;23.20;;;8.98;;
78169;SDS011;67412;49.892;14.490;2023-02-14T17:20:25;29.20;;;12.05;;
78169;SDS011;67412;49.892;14.490;2023-02-14T17:22:52;20.17;;;9.35;;
78169;SDS011;67412;49.892;14.490;2023-02-14T17:25:19;21.40;;;9.32;;
78169;SDS011;67412;49.892;14.490;2023-02-14T17:27:45;19.45;;;8.80;;
78169;SDS011;67412;49.892;14.490;2023-02-14T17:30:11;21.52;;;8.52;;
78169;SDS011;67412;49.892;14.490;2023-02-14T17:32:38;20.70;;;9.18;;
78169;SDS011;67412;49.892;14.490;2023-02-14T17:35:04;20.58;;;10.23;;
78169;SDS011;67412;49.892;14.490;2023-02-14T17:37:30;23.55;;;10.18;;
78169;SDS011;67412;49.892;14.490;2023-02-14T17:39:56;22.35;;;9.63;;
78169;SDS011;67412;49.892;14.490;2023-02-14T17:42:21;23.17;;;10.02;;
78169;SDS011;67412;49.892;14.490;2023-02-14T17:44:47;26.05;;;10.88;;
78169;SDS011;67412;49.892;14.490;2023-02-14T17:47:13;20.90;;;9.70;;
78169;SDS011;67412;49.892;14.490;2023-02-14T17:49:40;19.83;;;9.68;;
78169;SDS011;67412;49.892;14.490;2023-02-14T17:52:06;23.02;;;9.10;;